createdAt,value
2022-12-31T00:00:36.938Z,20.57
2022-12-31T00:03:18.318Z,20.82
2022-12-31T00:05:46.607Z,20.77
2022-12-31T00:08:14.475Z,20.85
2022-12-31T00:10:42.545Z,21.07
2022-12-31T00:13:16.443Z,21.27
2022-12-31T00:15:45.079Z,20.55
2022-12-31T00:18:12.946Z,20.68
2022-12-31T00:20:41.986Z,18.67
2022-12-31T00:23:11.646Z,19.20
2022-12-31T00:25:39.287Z,18.25
2022-12-31T00:28:08.519Z,17.32
2022-12-31T00:30:49.174Z,16.10
2022-12-31T00:33:16.844Z,16.65
2022-12-31T00:35:45.076Z,15.63
2022-12-31T00:38:13.205Z,17.07
2022-12-31T00:40:41.435Z,18.15
2022-12-31T00:43:09.233Z,17.87
2022-12-31T00:45:36.620Z,17.77
2022-12-31T00:48:04.470Z,15.23
2022-12-31T00:50:32.007Z,16.60
2022-12-31T00:52:59.907Z,16.52
2022-12-31T00:55:27.702Z,18.40
2022-12-31T00:57:55.691Z,17.17
2022-12-31T01:00:37.646Z,16.95
2022-12-31T01:03:06.819Z,18.70
2022-12-31T01:05:35.755Z,16.35
2022-12-31T01:08:05.289Z,16.55
2022-12-31T01:10:51.846Z,18.30
2022-12-31T01:13:19.846Z,16.50
2022-12-31T01:15:49.130Z,17.65
2022-12-31T01:18:17.516Z,16.93
2022-12-31T01:20:45.631Z,16.02
2022-12-31T01:23:13.247Z,16.12
2022-12-31T01:25:45.330Z,14.75
2022-12-31T01:28:16.947Z,16.37
2022-12-31T01:30:44.620Z,16.10
2022-12-31T01:33:12.096Z,15.83
2022-12-31T01:35:40.449Z,16.17
2022-12-31T01:38:08.252Z,18.82
2022-12-31T01:40:40.911Z,16.95
2022-12-31T01:43:18.001Z,17.57
2022-12-31T01:45:52.850Z,17.17
2022-12-31T01:48:42.463Z,16.82
2022-12-31T01:51:11.240Z,15.72
2022-12-31T01:53:41.039Z,15.75
2022-12-31T01:56:09.228Z,15.88
2022-12-31T01:58:40.941Z,15.95
2022-12-31T02:01:10.674Z,15.15
2022-12-31T02:03:39.433Z,15.35
2022-12-31T02:06:17.405Z,15.78
2022-12-31T02:08:45.442Z,15.45
2022-12-31T02:11:43.819Z,14.95
2022-12-31T02:14:18.121Z,15.18
2022-12-31T02:17:10.999Z,15.15
2022-12-31T02:20:21.108Z,15.85
2022-12-31T02:23:14.335Z,15.18
2022-12-31T02:26:02.847Z,16.55
2022-12-31T02:28:51.896Z,16.40
2022-12-31T02:31:23.281Z,17.02
2022-12-31T02:34:07.123Z,15.72
2022-12-31T02:36:38.854Z,16.82
2022-12-31T02:39:12.319Z,17.15
2022-12-31T02:41:51.650Z,17.37
2022-12-31T02:44:28.969Z,17.45
2022-12-31T02:47:12.727Z,18.30
2022-12-31T02:50:09.044Z,17.73
2022-12-31T02:53:03.970Z,17.52
2022-12-31T02:55:50.342Z,16.33
2022-12-31T02:59:08.564Z,17.00
2022-12-31T03:01:58.360Z,17.23
2022-12-31T03:04:33.720Z,18.17
2022-12-31T03:07:08.338Z,18.45
2022-12-31T03:09:37.953Z,18.77
2022-12-31T03:12:27.056Z,20.35
2022-12-31T03:14:55.259Z,21.40
2022-12-31T03:17:23.698Z,23.42
2022-12-31T03:20:12.836Z,23.85
2022-12-31T03:22:46.110Z,23.07
2022-12-31T03:25:38.049Z,23.47
2022-12-31T03:28:09.327Z,22.75
2022-12-31T03:30:39.503Z,21.30
2022-12-31T03:33:11.174Z,22.13
2022-12-31T03:35:39.999Z,18.15
2022-12-31T03:38:16.162Z,18.95
2022-12-31T03:40:47.737Z,19.10
2022-12-31T03:43:16.194Z,19.02
2022-12-31T03:45:43.745Z,20.37
2022-12-31T03:48:11.532Z,19.60
2022-12-31T03:50:40.306Z,20.25
2022-12-31T03:53:08.314Z,20.05
2022-12-31T03:55:35.984Z,17.98
2022-12-31T03:58:04.192Z,17.82
2022-12-31T04:00:32.677Z,18.60
2022-12-31T04:03:11.674Z,18.65
2022-12-31T04:05:39.180Z,20.08
2022-12-31T04:08:07.098Z,19.35
2022-12-31T04:10:34.977Z,18.98
2022-12-31T04:13:05.035Z,19.12
2022-12-31T04:15:36.746Z,19.82
2022-12-31T04:18:05.087Z,20.12
2022-12-31T04:20:32.714Z,20.43
2022-12-31T04:25:46.941Z,20.60
2022-12-31T04:28:15.277Z,20.30
2022-12-31T04:30:44.209Z,21.40
2022-12-31T04:33:12.040Z,20.10
2022-12-31T04:35:40.271Z,20.60
2022-12-31T04:41:18.130Z,21.42
2022-12-31T04:46:32.006Z,17.32
2022-12-31T04:49:00.371Z,18.75
2022-12-31T04:51:29.957Z,17.92
2022-12-31T04:54:02.149Z,17.23
2022-12-31T04:56:30.193Z,16.85
2022-12-31T04:58:58.410Z,17.05
2022-12-31T05:01:26.443Z,16.62
2022-12-31T05:03:54.430Z,16.05
2022-12-31T05:06:23.468Z,15.83
2022-12-31T05:08:51.545Z,14.68
2022-12-31T05:11:18.858Z,15.45
2022-12-31T05:13:46.919Z,14.83
2022-12-31T05:16:14.813Z,15.18
2022-12-31T05:18:42.560Z,14.95
2022-12-31T05:21:12.137Z,14.43
2022-12-31T05:23:39.833Z,14.90
2022-12-31T05:26:07.751Z,14.20
2022-12-31T05:28:35.413Z,14.18
2022-12-31T05:31:03.125Z,14.18
2022-12-31T05:33:33.426Z,14.10
2022-12-31T05:36:06.291Z,14.80
2022-12-31T05:38:32.104Z,14.68
2022-12-31T05:41:01.865Z,15.45
2022-12-31T05:43:30.324Z,16.75
2022-12-31T05:46:04.171Z,17.32
2022-12-31T05:48:32.322Z,17.55
2022-12-31T05:51:00.387Z,17.52
2022-12-31T05:53:29.516Z,16.35
2022-12-31T05:55:57.754Z,14.85
2022-12-31T05:58:26.524Z,16.23
2022-12-31T06:00:55.342Z,16.50
2022-12-31T06:03:23.200Z,16.55
2022-12-31T06:06:04.452Z,15.63
2022-12-31T06:08:46.203Z,15.10
2022-12-31T06:11:14.436Z,16.20
2022-12-31T06:13:44.515Z,15.85
2022-12-31T06:16:15.359Z,17.27
2022-12-31T06:18:43.195Z,18.73
2022-12-31T06:21:11.085Z,18.25
2022-12-31T06:23:41.476Z,18.50
2022-12-31T06:26:09.259Z,20.65
2022-12-31T06:28:37.097Z,20.75
2022-12-31T06:31:06.720Z,22.70
2022-12-31T06:33:36.084Z,21.00
2022-12-31T06:36:07.419Z,18.55
2022-12-31T06:38:38.723Z,19.37
2022-12-31T06:41:08.737Z,18.60
2022-12-31T06:43:37.606Z,17.07
2022-12-31T06:46:07.610Z,16.40
2022-12-31T06:48:35.804Z,16.42
2022-12-31T06:51:11.956Z,16.42
2022-12-31T06:53:57.456Z,16.70
2022-12-31T06:56:33.928Z,15.10
2022-12-31T06:58:59.867Z,16.42
2022-12-31T07:01:51.723Z,16.07
2022-12-31T07:04:50.969Z,16.42
2022-12-31T07:07:25.607Z,17.37
2022-12-31T07:09:57.383Z,17.57
2022-12-31T07:12:53.612Z,17.23
2022-12-31T07:15:37.191Z,14.55
2022-12-31T07:18:17.861Z,15.83
2022-12-31T07:20:46.522Z,17.75
2022-12-31T07:23:15.160Z,16.05
2022-12-31T07:25:46.477Z,15.63
2022-12-31T07:28:39.237Z,14.33
2022-12-31T07:31:13.805Z,16.37
2022-12-31T07:33:57.402Z,16.23
2022-12-31T07:36:35.063Z,15.55
2022-12-31T07:39:19.163Z,14.60
2022-12-31T07:42:05.830Z,14.63
2022-12-31T07:44:56.505Z,15.85
2022-12-31T07:47:27.571Z,15.88
2022-12-31T07:49:56.449Z,17.48
2022-12-31T07:52:28.388Z,16.87
2022-12-31T07:54:56.179Z,17.02
2022-12-31T07:57:27.266Z,16.60
2022-12-31T08:00:11.236Z,18.23
2022-12-31T08:03:04.984Z,17.67
2022-12-31T08:05:36.389Z,18.20
2022-12-31T08:08:40.453Z,16.97
2022-12-31T08:11:15.047Z,16.93
2022-12-31T08:13:43.895Z,17.98
2022-12-31T08:16:26.355Z,15.80
2022-12-31T08:18:55.172Z,15.55
2022-12-31T08:21:35.943Z,15.25
2022-12-31T08:24:28.134Z,15.05
2022-12-31T08:27:11.087Z,15.28
2022-12-31T08:29:42.797Z,16.12
2022-12-31T08:35:06.291Z,17.60
2022-12-31T08:37:48.494Z,16.62
2022-12-31T08:40:40.216Z,18.80
2022-12-31T08:43:27.328Z,21.48
2022-12-31T08:45:59.726Z,23.30
2022-12-31T08:48:44.240Z,22.55
2022-12-31T08:51:24.058Z,22.30
2022-12-31T08:53:53.269Z,22.65
2022-12-31T08:56:48.815Z,20.95
2022-12-31T08:59:31.844Z,21.48
2022-12-31T09:02:12.712Z,21.68
2022-12-31T09:05:02.235Z,22.13
2022-12-31T09:07:41.919Z,22.15
2022-12-31T09:10:37.141Z,21.65
2022-12-31T09:13:14.888Z,23.57
2022-12-31T09:15:57.968Z,23.10
2022-12-31T09:18:32.870Z,22.82
2022-12-31T09:20:56.260Z,22.98
2022-12-31T09:23:25.609Z,25.60
2022-12-31T09:26:03.230Z,25.82
2022-12-31T09:28:54.944Z,23.57
2022-12-31T09:31:26.702Z,23.15
2022-12-31T09:34:04.517Z,23.30
2022-12-31T09:36:41.947Z,24.50
2022-12-31T09:39:13.968Z,23.57
2022-12-31T09:42:03.500Z,23.10
2022-12-31T09:44:40.923Z,24.63
2022-12-31T09:47:25.220Z,24.05
2022-12-31T09:50:25.725Z,24.83
2022-12-31T09:53:22.076Z,24.55
2022-12-31T09:56:18.360Z,24.30
2022-12-31T09:59:07.708Z,28.83
2022-12-31T10:01:43.329Z,31.80
2022-12-31T10:04:23.468Z,30.35
2022-12-31T10:07:21.397Z,29.57
2022-12-31T10:09:58.704Z,24.72
2022-12-31T10:12:48.572Z,26.25
2022-12-31T10:15:43.223Z,27.25
2022-12-31T10:18:29.621Z,28.90
2022-12-31T10:21:09.467Z,31.27
2022-12-31T10:23:52.815Z,29.15
2022-12-31T10:26:29.558Z,27.42
2022-12-31T10:29:30.350Z,27.25
2022-12-31T10:32:16.946Z,26.00
2022-12-31T10:34:53.305Z,25.50
2022-12-31T10:37:48.216Z,26.25
2022-12-31T10:40:27.014Z,27.02
2022-12-31T10:43:23.072Z,26.82
2022-12-31T10:46:10.269Z,25.30
2022-12-31T10:49:15.972Z,27.00
2022-12-31T10:52:05.601Z,25.80
2022-12-31T10:54:46.893Z,26.20
2022-12-31T10:57:36.559Z,26.87
2022-12-31T11:00:17.889Z,26.40
2022-12-31T11:03:29.635Z,26.40
2022-12-31T11:06:30.256Z,25.65
2022-12-31T11:09:34.241Z,28.00
2022-12-31T11:12:07.583Z,27.67
2022-12-31T11:14:54.276Z,26.42
2022-12-31T11:17:38.184Z,26.87
2022-12-31T11:20:37.067Z,26.95
2022-12-31T11:23:36.074Z,25.68
2022-12-31T11:26:41.173Z,23.27
2022-12-31T11:29:35.066Z,25.37
2022-12-31T11:32:13.557Z,24.80
2022-12-31T11:35:05.824Z,24.40
2022-12-31T11:37:46.958Z,24.90
2022-12-31T11:40:42.985Z,25.52
2022-12-31T11:43:46.429Z,24.72
2022-12-31T11:46:44.599Z,24.27
2022-12-31T11:49:31.373Z,24.80
2022-12-31T11:52:08.744Z,24.95
2022-12-31T11:55:02.982Z,24.92
2022-12-31T11:57:36.699Z,22.82
2022-12-31T12:00:19.275Z,25.68
2022-12-31T12:03:05.128Z,24.72
2022-12-31T12:05:35.174Z,27.85
2022-12-31T12:08:03.385Z,28.77
2022-12-31T12:10:46.607Z,27.67
2022-12-31T12:13:24.140Z,23.85
2022-12-31T12:15:56.193Z,24.82
2022-12-31T12:18:28.224Z,24.50
2022-12-31T12:21:14.689Z,27.35
2022-12-31T12:23:43.225Z,25.50
2022-12-31T12:26:28.729Z,26.00
2022-12-31T12:29:05.269Z,26.05
2022-12-31T12:31:37.217Z,24.23
2022-12-31T12:34:06.665Z,23.42
2022-12-31T12:36:34.857Z,20.35
2022-12-31T12:39:06.775Z,22.65
2022-12-31T12:41:34.613Z,22.17
2022-12-31T12:44:06.909Z,22.93
2022-12-31T12:46:39.969Z,20.82
2022-12-31T12:49:10.488Z,23.50
2022-12-31T12:51:56.948Z,24.07
2022-12-31T12:54:48.747Z,22.05
2022-12-31T12:57:23.379Z,21.90
2022-12-31T13:00:10.372Z,25.88
2022-12-31T13:02:43.468Z,29.27
2022-12-31T13:05:25.991Z,28.47
2022-12-31T13:08:13.059Z,28.50
2022-12-31T13:11:24.898Z,25.85
2022-12-31T13:14:08.862Z,26.25
2022-12-31T13:16:50.753Z,26.62
2022-12-31T13:19:37.372Z,25.60
2022-12-31T13:22:19.138Z,28.55
2022-12-31T13:25:12.960Z,27.45
2022-12-31T13:27:50.515Z,27.37
2022-12-31T13:30:25.005Z,36.20
2022-12-31T13:35:33.323Z,31.87
2022-12-31T13:41:25.395Z,29.90
2022-12-31T13:44:19.105Z,30.95
2022-12-31T13:46:55.193Z,30.65
2022-12-31T13:49:26.760Z,30.52
2022-12-31T13:52:00.713Z,28.20
2022-12-31T13:54:39.535Z,29.57
2022-12-31T13:57:25.999Z,28.02
2022-12-31T13:59:57.961Z,27.65
2022-12-31T14:02:47.361Z,29.50
2022-12-31T14:05:18.901Z,28.35
2022-12-31T14:07:59.602Z,30.55
2022-12-31T14:10:57.691Z,29.85
2022-12-31T14:13:41.505Z,29.60
2022-12-31T14:16:25.309Z,29.98
2022-12-31T14:19:12.247Z,30.10
2022-12-31T14:21:49.664Z,30.62
2022-12-31T14:24:47.997Z,30.27
2022-12-31T14:27:19.978Z,30.10
2022-12-31T14:29:53.952Z,32.85
2022-12-31T14:32:28.914Z,32.58
2022-12-31T14:35:18.294Z,35.05
2022-12-31T14:38:16.987Z,31.68
2022-12-31T14:40:51.260Z,37.05
2022-12-31T14:43:31.708Z,34.13
2022-12-31T14:46:12.316Z,38.00
2022-12-31T14:48:46.756Z,31.73
2022-12-31T14:51:14.992Z,30.95
2022-12-31T14:53:54.082Z,31.82
2022-12-31T14:56:33.549Z,30.77
2022-12-31T14:59:03.267Z,32.93
2022-12-31T15:01:31.256Z,67.90
2022-12-31T15:03:59.332Z,38.53
2022-12-31T15:06:36.756Z,34.95
2022-12-31T15:09:28.271Z,34.55
2022-12-31T15:12:18.391Z,32.08
2022-12-31T15:14:52.916Z,31.35
2022-12-31T15:17:27.881Z,31.02
2022-12-31T15:20:16.504Z,32.13
2022-12-31T15:22:46.356Z,33.75
2022-12-31T15:25:38.638Z,32.38
2022-12-31T15:28:24.097Z,44.33
2022-12-31T15:30:56.885Z,46.68
2022-12-31T15:33:34.520Z,41.13
2022-12-31T15:36:21.443Z,41.98
2022-12-31T15:38:50.399Z,40.98
2022-12-31T15:41:31.018Z,41.15
2022-12-31T15:44:05.442Z,40.75
2022-12-31T15:46:39.520Z,40.78
2022-12-31T15:49:31.739Z,37.80
2022-12-31T15:52:08.559Z,37.55
2022-12-31T15:54:51.989Z,36.70
2022-12-31T15:57:41.555Z,38.08
2022-12-31T16:00:21.827Z,39.23
2022-12-31T16:02:53.381Z,39.03
2022-12-31T16:05:27.132Z,37.75
2022-12-31T16:07:58.948Z,38.28
2022-12-31T16:10:32.016Z,37.78
2022-12-31T16:13:00.626Z,39.33
2022-12-31T16:15:32.126Z,38.55
2022-12-31T16:18:06.227Z,36.25
2022-12-31T16:20:36.940Z,34.40
2022-12-31T16:23:23.525Z,36.30
2022-12-31T16:25:53.947Z,34.95
2022-12-31T16:28:25.324Z,35.40
2022-12-31T16:31:08.954Z,35.40
2022-12-31T16:33:38.471Z,38.35
2022-12-31T16:36:07.175Z,38.73
2022-12-31T16:38:36.946Z,38.10
2022-12-31T16:41:13.514Z,42.35
2022-12-31T16:43:45.478Z,40.12
2022-12-31T16:46:31.859Z,39.18
2022-12-31T16:49:06.120Z,36.38
2022-12-31T16:51:36.428Z,33.02
2022-12-31T16:54:04.904Z,31.93
2022-12-31T16:56:38.841Z,35.83
2022-12-31T16:59:10.456Z,34.03
2022-12-31T17:01:39.403Z,34.48
2022-12-31T17:04:11.700Z,33.73
2022-12-31T17:06:41.997Z,36.17
2022-12-31T17:09:19.570Z,34.08
2022-12-31T17:11:56.770Z,33.25
2022-12-31T17:14:29.482Z,32.58
2022-12-31T17:17:04.064Z,32.75
2022-12-31T17:19:47.118Z,34.53
2022-12-31T17:22:34.584Z,33.50
2022-12-31T17:25:02.393Z,33.60
2022-12-31T17:27:31.021Z,33.30
2022-12-31T17:30:22.708Z,33.98
2022-12-31T17:32:51.960Z,32.67
2022-12-31T17:35:28.559Z,34.70
2022-12-31T17:38:17.186Z,32.67
2022-12-31T17:40:51.949Z,34.08
2022-12-31T17:43:19.844Z,34.23
2022-12-31T17:45:48.584Z,32.93
2022-12-31T17:48:18.347Z,34.15
2022-12-31T17:50:56.254Z,43.90
2022-12-31T17:53:24.859Z,33.90
2022-12-31T17:55:56.219Z,33.08
2022-12-31T17:58:30.105Z,32.93
2022-12-31T18:00:59.594Z,32.08
2022-12-31T18:03:28.345Z,33.92
2022-12-31T18:05:56.254Z,32.63
2022-12-31T18:08:24.376Z,31.93
2022-12-31T18:10:54.149Z,33.45
2022-12-31T18:13:27.540Z,33.20
2022-12-31T18:15:55.597Z,32.48
2022-12-31T18:18:29.283Z,33.10
2022-12-31T18:20:59.588Z,32.25
2022-12-31T18:23:30.974Z,32.65
2022-12-31T18:25:58.501Z,33.05
2022-12-31T18:28:26.218Z,33.92
2022-12-31T18:30:54.198Z,32.67
2022-12-31T18:33:26.046Z,36.48
2022-12-31T18:36:10.526Z,37.00
2022-12-31T18:38:24.110Z,40.05
2022-12-31T18:40:58.116Z,44.10
2022-12-31T18:43:29.120Z,43.40
2022-12-31T18:45:56.807Z,40.78
2022-12-31T18:48:25.339Z,39.58
2022-12-31T18:50:53.154Z,38.80
2022-12-31T18:53:23.335Z,41.35
2022-12-31T18:55:54.551Z,41.68
2022-12-31T18:58:23.183Z,38.45
2022-12-31T19:00:52.235Z,35.30
2022-12-31T19:03:23.048Z,33.30
2022-12-31T19:05:54.033Z,34.13
2022-12-31T19:08:24.151Z,31.68
2022-12-31T19:10:53.128Z,32.40
2022-12-31T19:13:20.983Z,31.93
2022-12-31T19:15:51.894Z,33.10
2022-12-31T19:18:19.811Z,30.95
2022-12-31T19:20:48.347Z,31.82
2022-12-31T19:23:19.542Z,30.85
2022-12-31T19:25:48.055Z,31.25
2022-12-31T19:28:21.695Z,30.08
2022-12-31T19:30:53.004Z,32.00
2022-12-31T19:33:20.788Z,32.50
2022-12-31T19:35:49.932Z,31.80
2022-12-31T19:38:24.302Z,32.88
2022-12-31T19:40:53.926Z,34.13
2022-12-31T19:43:24.264Z,35.75
2022-12-31T19:45:53.149Z,36.00
2022-12-31T19:48:30.509Z,37.10
2022-12-31T19:50:55.379Z,42.03
2022-12-31T19:53:26.093Z,41.77
2022-12-31T19:55:56.973Z,38.48
2022-12-31T19:58:28.072Z,38.90
2022-12-31T20:01:02.954Z,40.45
2022-12-31T20:03:28.805Z,40.43
2022-12-31T20:06:08.790Z,45.40
2022-12-31T20:08:38.429Z,40.43
2022-12-31T20:11:15.768Z,43.15
2022-12-31T20:13:45.294Z,38.45
2022-12-31T20:16:19.035Z,36.68
2022-12-31T20:18:51.244Z,36.17
2022-12-31T20:21:22.896Z,39.30
2022-12-31T20:23:53.374Z,39.67
2022-12-31T20:26:23.653Z,41.23
2022-12-31T20:28:51.566Z,43.95
2022-12-31T20:31:22.804Z,41.35
2022-12-31T20:33:51.022Z,42.40
2022-12-31T20:36:18.857Z,41.13
2022-12-31T20:38:47.118Z,42.62
2022-12-31T20:41:20.764Z,41.92
2022-12-31T20:43:50.564Z,39.98
2022-12-31T20:46:21.260Z,39.85
2022-12-31T20:48:51.220Z,40.55
2022-12-31T20:51:21.360Z,40.15
2022-12-31T20:53:53.072Z,37.53
2022-12-31T20:56:20.950Z,34.88
2022-12-31T20:58:49.259Z,37.55
2022-12-31T21:01:18.620Z,36.93
2022-12-31T21:04:05.442Z,35.05
2022-12-31T21:06:17.419Z,34.23
2022-12-31T21:08:45.811Z,34.98
2022-12-31T21:11:33.501Z,34.75
2022-12-31T21:14:05.379Z,33.88
2022-12-31T21:16:33.200Z,34.03
2022-12-31T21:19:01.818Z,32.40
2022-12-31T21:21:29.769Z,31.45
2022-12-31T21:23:57.554Z,32.70
2022-12-31T21:26:25.080Z,30.68
2022-12-31T21:28:53.628Z,31.60
2022-12-31T21:31:31.607Z,29.65
2022-12-31T21:33:59.183Z,28.90
2022-12-31T21:36:27.036Z,30.70
2022-12-31T21:38:55.315Z,29.77
2022-12-31T21:41:44.350Z,29.50
2022-12-31T21:44:12.509Z,28.70
2022-12-31T21:46:54.572Z,30.23
2022-12-31T21:49:10.008Z,29.12
2022-12-31T21:51:40.887Z,27.22
2022-12-31T21:54:10.635Z,28.67
2022-12-31T21:56:42.020Z,25.97
2022-12-31T21:59:28.321Z,26.27
2022-12-31T22:02:14.802Z,26.37
2022-12-31T22:07:12.318Z,27.50
2022-12-31T22:09:40.533Z,29.07
2022-12-31T22:12:08.354Z,27.15
2022-12-31T22:14:36.072Z,26.55
2022-12-31T22:17:06.845Z,27.37
2022-12-31T22:19:48.717Z,26.57
2022-12-31T22:22:06.582Z,25.27
2022-12-31T22:24:34.798Z,25.90
2022-12-31T22:27:28.114Z,26.57
2022-12-31T22:29:32.363Z,30.45
2022-12-31T22:32:01.437Z,32.35
2022-12-31T22:34:29.708Z,29.95
2022-12-31T22:36:58.859Z,28.32
2022-12-31T22:39:44.032Z,30.45
2022-12-31T22:41:57.507Z,30.90
2022-12-31T22:44:25.583Z,29.75
2022-12-31T22:46:53.770Z,29.30
2022-12-31T22:49:22.172Z,26.80
2022-12-31T22:51:54.897Z,25.57
2022-12-31T22:54:20.181Z,25.45
2022-12-31T22:56:48.679Z,25.27
2022-12-31T22:59:16.300Z,24.52
2022-12-31T23:01:44.697Z,26.97
2022-12-31T23:04:12.530Z,25.77
2022-12-31T23:06:46.289Z,28.42
2022-12-31T23:09:34.923Z,25.25
2022-12-31T23:12:07.612Z,25.80
2022-12-31T23:14:53.984Z,32.10
2022-12-31T23:17:46.859Z,29.05
2022-12-31T23:20:36.208Z,34.25
2022-12-31T23:23:14.745Z,38.58
2022-12-31T23:25:45.568Z,45.00
2022-12-31T23:28:20.839Z,43.95
2022-12-31T23:30:48.997Z,62.70
2022-12-31T23:33:21.015Z,100.33
2022-12-31T23:35:48.850Z,110.15
2022-12-31T23:38:18.305Z,108.60
2022-12-31T23:40:46.026Z,95.20
2022-12-31T23:43:20.292Z,93.35
2022-12-31T23:45:49.780Z,76.42
2022-12-31T23:48:20.884Z,63.30
2022-12-31T23:50:53.625Z,53.58
2022-12-31T23:53:23.251Z,47.75
2022-12-31T23:55:54.746Z,44.80
2022-12-31T23:58:22.902Z,47.88
